createdAt,value
2019-03-20T00:00:11.316Z,6.43
2019-03-20T00:03:18.870Z,3.23
2019-03-20T00:06:26.031Z,4.23
2019-03-20T00:09:33.457Z,3.83
2019-03-20T00:12:41.053Z,6.27
2019-03-20T00:15:48.652Z,5.30
2019-03-20T00:18:55.806Z,6.17
2019-03-20T00:22:03.579Z,5.50
2019-03-20T00:25:11.376Z,4.73
2019-03-20T00:28:18.727Z,6.50
2019-03-20T00:31:26.341Z,4.37
2019-03-20T00:34:33.516Z,3.77
2019-03-20T00:37:41.329Z,5.07
2019-03-20T00:40:48.952Z,8.33
2019-03-20T00:43:56.628Z,6.30
2019-03-20T00:47:04.128Z,4.50
2019-03-20T00:50:13.344Z,2.93
2019-03-20T00:53:20.504Z,5.90
2019-03-20T00:56:27.658Z,5.07
2019-03-20T00:59:34.822Z,3.50
2019-03-20T01:02:41.980Z,5.30
2019-03-20T01:05:49.519Z,4.50
2019-03-20T01:08:56.767Z,5.33
2019-03-20T01:12:04.022Z,4.63
2019-03-20T01:15:11.771Z,5.03
2019-03-20T01:18:18.955Z,3.77
2019-03-20T01:21:26.429Z,4.47
2019-03-20T01:24:33.922Z,5.63
2019-03-20T01:27:41.284Z,3.73
2019-03-20T01:30:48.913Z,5.40
2019-03-20T01:33:56.382Z,5.77
2019-03-20T01:37:03.751Z,3.50
2019-03-20T01:40:11.010Z,5.73
2019-03-20T01:43:18.379Z,3.13
2019-03-20T01:46:25.554Z,4.80
2019-03-20T01:49:32.983Z,3.87
2019-03-20T01:52:40.149Z,5.07
2019-03-20T01:55:47.653Z,3.67
2019-03-20T01:58:54.901Z,3.93
2019-03-20T02:02:02.957Z,3.70
2019-03-20T02:05:10.507Z,3.97
2019-03-20T02:08:17.763Z,4.53
2019-03-20T02:11:25.022Z,5.40
2019-03-20T02:14:32.172Z,5.50
2019-03-20T02:17:39.816Z,5.73
2019-03-20T02:20:47.275Z,5.97
2019-03-20T02:23:54.525Z,5.40
2019-03-20T02:27:02.003Z,5.70
2019-03-20T02:30:14.076Z,3.50
2019-03-20T02:33:21.419Z,4.67
2019-03-20T02:36:28.930Z,5.17
2019-03-20T02:39:36.103Z,5.67
2019-03-20T02:42:43.712Z,6.23
2019-03-20T02:45:50.859Z,3.43
2019-03-20T02:48:58.874Z,2.87
2019-03-20T02:52:06.041Z,3.50
2019-03-20T02:55:13.729Z,4.67
2019-03-20T02:58:21.160Z,4.40
2019-03-20T03:01:28.555Z,3.27
2019-03-20T03:04:35.828Z,7.20
2019-03-20T03:07:43.406Z,2.90
2019-03-20T03:10:50.668Z,3.67
2019-03-20T03:13:58.179Z,3.07
2019-03-20T03:17:05.643Z,4.63
2019-03-20T03:20:13.110Z,2.63
2019-03-20T03:23:20.390Z,2.50
2019-03-20T03:26:27.539Z,4.23
2019-03-20T03:29:34.970Z,3.40
2019-03-20T03:32:42.786Z,2.50
2019-03-20T03:35:50.018Z,4.87
2019-03-20T03:38:57.190Z,3.27
2019-03-20T03:42:05.381Z,3.43
2019-03-20T03:45:12.790Z,4.17
2019-03-20T03:48:20.221Z,3.20
2019-03-20T03:51:27.406Z,5.03
2019-03-20T03:54:34.680Z,3.17
2019-03-20T03:57:42.355Z,2.53
2019-03-20T04:00:49.638Z,2.67
2019-03-20T04:03:56.904Z,2.53
2019-03-20T04:07:04.411Z,3.23
2019-03-20T04:10:11.889Z,3.07
2019-03-20T04:13:19.157Z,3.30
2019-03-20T04:16:26.340Z,3.43
2019-03-20T04:19:33.631Z,3.73
2019-03-20T04:22:41.315Z,7.57
2019-03-20T04:25:48.463Z,3.10
2019-03-20T04:28:55.626Z,5.00
2019-03-20T04:32:03.120Z,5.40
2019-03-20T04:35:11.108Z,3.63
2019-03-20T04:38:18.482Z,3.30
2019-03-20T04:41:25.747Z,7.70
2019-03-20T04:44:32.973Z,6.17
2019-03-20T04:47:40.259Z,2.87
2019-03-20T04:50:47.739Z,3.93
2019-03-20T04:53:54.958Z,5.50
2019-03-20T04:57:02.555Z,3.57
2019-03-20T05:00:13.041Z,4.97
2019-03-20T05:03:20.630Z,3.93
2019-03-20T05:06:27.829Z,4.53
2019-03-20T05:09:35.644Z,4.73
2019-03-20T05:12:43.309Z,4.60
2019-03-20T05:15:50.598Z,3.33
2019-03-20T05:18:57.818Z,4.37
2019-03-20T05:22:05.628Z,6.17
2019-03-20T05:25:13.474Z,3.03
2019-03-20T05:28:20.967Z,4.33
2019-03-20T05:31:28.511Z,4.13
2019-03-20T05:34:56.053Z,3.57
2019-03-20T05:38:03.851Z,3.57
2019-03-20T05:41:11.161Z,6.23
2019-03-20T05:44:18.336Z,3.23
2019-03-20T05:47:25.603Z,5.13
2019-03-20T05:50:33.160Z,5.60
2019-03-20T05:53:40.435Z,5.60
2019-03-20T05:56:47.769Z,3.87
2019-03-20T05:59:55.363Z,5.33
2019-03-20T06:03:04.016Z,4.07
2019-03-20T06:06:11.499Z,4.00
2019-03-20T06:09:18.822Z,8.87
2019-03-20T06:12:25.985Z,13.93
2019-03-20T06:15:33.147Z,17.70
2019-03-20T06:18:40.429Z,13.07
2019-03-20T06:21:47.596Z,7.87
2019-03-20T06:24:55.007Z,6.63
2019-03-20T06:28:02.636Z,7.10
2019-03-20T06:31:09.930Z,4.50
2019-03-20T06:34:17.533Z,3.83
2019-03-20T06:37:32.206Z,4.07
2019-03-20T06:40:34.193Z,3.70
2019-03-20T06:43:41.357Z,2.70
2019-03-20T06:46:48.529Z,4.77
2019-03-20T06:49:56.016Z,3.63
2019-03-20T06:53:03.740Z,2.87
2019-03-20T06:56:11.037Z,5.10
2019-03-20T07:00:29.709Z,3.87
2019-03-20T07:04:23.169Z,2.50
2019-03-20T07:07:43.989Z,2.80
2019-03-20T07:11:10.657Z,2.80
2019-03-20T07:14:18.020Z,2.43
2019-03-20T07:17:25.369Z,6.27
2019-03-20T07:23:47.667Z,2.40
2019-03-20T07:26:54.975Z,3.93
2019-03-20T07:30:04.871Z,4.17
2019-03-20T07:33:12.545Z,2.43
2019-03-20T07:36:20.249Z,2.73
2019-03-20T07:39:27.512Z,3.47
2019-03-20T07:42:35.115Z,3.67
2019-03-20T07:45:42.854Z,5.07
2019-03-20T07:48:50.596Z,2.20
2019-03-20T07:51:58.145Z,3.67
2019-03-20T07:55:05.813Z,2.33
2019-03-20T07:58:13.102Z,3.07
2019-03-20T08:01:20.845Z,3.70
2019-03-20T08:04:28.103Z,5.70
2019-03-20T08:07:35.273Z,5.20
2019-03-20T08:10:42.572Z,4.53
2019-03-20T08:13:50.077Z,6.60
2019-03-20T08:16:57.242Z,3.77
2019-03-20T08:20:06.479Z,2.67
2019-03-20T08:23:14.557Z,4.57
2019-03-20T08:26:22.244Z,3.13
2019-03-20T08:29:29.949Z,4.60
2019-03-20T08:32:37.222Z,2.83
2019-03-20T08:35:44.479Z,7.73
2019-03-20T08:38:51.821Z,3.47
2019-03-20T08:45:25.648Z,2.30
2019-03-20T08:48:32.982Z,4.83
2019-03-20T08:51:40.615Z,3.63
2019-03-20T08:54:47.823Z,2.93
2019-03-20T08:57:55.251Z,3.80
2019-03-20T09:01:03.192Z,3.10
2019-03-20T09:04:10.946Z,5.63
2019-03-20T09:07:18.948Z,3.10
2019-03-20T09:10:26.753Z,5.60
2019-03-20T09:13:34.185Z,1.87
2019-03-20T09:16:41.392Z,3.93
2019-03-20T09:19:48.575Z,3.70
2019-03-20T09:22:56.348Z,4.73
2019-03-20T09:26:04.166Z,6.57
2019-03-20T09:29:18.472Z,3.73
2019-03-20T09:32:21.030Z,1.37
2019-03-20T09:35:29.190Z,1.67
2019-03-20T09:38:43.474Z,3.30
2019-03-20T09:41:45.931Z,2.23
2019-03-20T09:44:53.225Z,2.83
2019-03-20T09:48:00.532Z,6.63
2019-03-20T09:51:08.836Z,4.63
2019-03-20T09:54:16.397Z,4.33
2019-03-20T09:57:23.584Z,3.70
2019-03-20T10:00:31.180Z,1.70
2019-03-20T10:03:38.895Z,2.37
2019-03-20T10:06:47.376Z,2.03
2019-03-20T10:09:54.931Z,2.47
2019-03-20T10:13:02.146Z,4.50
2019-03-20T10:16:09.400Z,2.20
2019-03-20T10:19:17.230Z,2.60
2019-03-20T10:22:24.403Z,4.93
2019-03-20T10:25:31.671Z,4.97
2019-03-20T10:28:39.477Z,2.93
2019-03-20T10:31:47.085Z,3.93
2019-03-20T10:34:54.549Z,4.93
2019-03-20T10:38:02.138Z,4.60
2019-03-20T10:41:09.986Z,5.97
2019-03-20T10:44:17.310Z,6.10
2019-03-20T10:47:24.508Z,4.43
2019-03-20T10:50:32.097Z,3.63
2019-03-20T10:53:39.784Z,6.37
2019-03-20T10:56:47.195Z,5.30
2019-03-20T10:59:54.713Z,4.77
2019-03-20T11:03:02.421Z,5.83
2019-03-20T11:06:09.878Z,6.97
2019-03-20T11:09:18.529Z,3.17
2019-03-20T11:12:26.518Z,3.30
2019-03-20T11:15:34.023Z,5.07
2019-03-20T11:18:41.604Z,5.57
2019-03-20T11:21:49.316Z,3.60
2019-03-20T11:24:57.239Z,2.47
2019-03-20T11:28:04.674Z,3.13
2019-03-20T11:31:12.272Z,4.47
2019-03-20T11:34:20.310Z,2.70
2019-03-20T11:37:28.034Z,2.63
2019-03-20T11:40:35.638Z,3.77
2019-03-20T11:43:42.962Z,4.03
2019-03-20T11:46:50.409Z,5.13
2019-03-20T11:49:58.302Z,2.80
2019-03-20T11:53:05.883Z,6.50
2019-03-20T11:56:13.296Z,4.47
2019-03-20T11:59:20.868Z,4.30
2019-03-20T12:02:28.693Z,4.17
2019-03-20T12:05:36.033Z,2.03
2019-03-20T12:08:43.451Z,2.80
2019-03-20T12:11:50.670Z,3.83
2019-03-20T12:14:58.226Z,3.07
2019-03-20T12:18:05.634Z,4.53
2019-03-20T12:21:13.040Z,2.93
2019-03-20T12:24:20.875Z,4.70
2019-03-20T12:27:28.633Z,3.90
2019-03-20T12:30:36.591Z,5.80
2019-03-20T12:33:44.789Z,1.67
2019-03-20T12:36:52.307Z,3.97
2019-03-20T12:39:59.775Z,3.70
2019-03-20T12:43:07.667Z,3.17
2019-03-20T12:46:15.134Z,4.30
2019-03-20T12:49:22.636Z,3.70
2019-03-20T12:52:30.041Z,2.50
2019-03-20T12:55:37.254Z,3.37
2019-03-20T12:58:44.566Z,3.50
2019-03-20T13:01:52.139Z,2.93
2019-03-20T13:04:59.664Z,3.13
2019-03-20T13:08:07.304Z,3.13
2019-03-20T13:11:15.114Z,2.40
2019-03-20T13:14:22.914Z,3.13
2019-03-20T13:17:30.391Z,3.77
2019-03-20T13:20:37.901Z,2.13
2019-03-20T13:23:45.272Z,2.97
2019-03-20T13:26:52.932Z,3.10
2019-03-20T13:30:00.866Z,3.33
2019-03-20T13:33:09.118Z,3.50
2019-03-20T13:36:16.454Z,6.87
2019-03-20T13:39:24.148Z,3.73
2019-03-20T13:42:31.454Z,3.70
2019-03-20T13:45:39.119Z,3.03
2019-03-20T13:48:46.692Z,3.80
2019-03-20T13:51:54.766Z,2.50
2019-03-20T13:55:02.318Z,3.17
2019-03-20T13:58:09.631Z,3.53
2019-03-20T14:01:17.792Z,3.07
2019-03-20T14:04:25.914Z,2.87
2019-03-20T14:07:33.499Z,2.30
2019-03-20T14:10:50.341Z,2.17
2019-03-20T14:13:50.847Z,2.30
2019-03-20T14:16:58.613Z,1.90
2019-03-20T14:20:10.149Z,4.17
2019-03-20T14:23:17.682Z,2.70
2019-03-20T14:26:25.586Z,2.43
2019-03-20T14:29:33.076Z,2.53
2019-03-20T14:32:41.020Z,4.60
2019-03-20T14:35:48.964Z,2.30
2019-03-20T14:38:56.365Z,4.50
2019-03-20T14:42:03.998Z,2.87
2019-03-20T14:45:13.019Z,5.00
2019-03-20T14:48:20.974Z,4.67
2019-03-20T14:51:28.590Z,4.87
2019-03-20T14:54:36.099Z,3.37
2019-03-20T14:57:44.686Z,4.83
2019-03-20T15:00:52.801Z,2.73
2019-03-20T15:04:00.811Z,3.70
2019-03-20T15:07:08.638Z,5.23
2019-03-20T15:10:17.892Z,2.93
2019-03-20T15:13:25.677Z,3.83
2019-03-20T15:16:33.551Z,4.73
2019-03-20T15:19:41.005Z,6.00
2019-03-20T15:22:48.602Z,2.80
2019-03-20T15:25:57.391Z,2.70
2019-03-20T15:29:05.146Z,3.67
2019-03-20T15:32:12.868Z,3.47
2019-03-20T15:35:21.397Z,2.13
2019-03-20T15:38:29.810Z,4.00
2019-03-20T15:41:37.748Z,4.00
2019-03-20T15:44:45.393Z,4.33
2019-03-20T15:47:53.078Z,3.50
2019-03-20T15:51:00.556Z,4.57
2019-03-20T15:54:08.341Z,6.67
2019-03-20T15:57:15.924Z,3.90
2019-03-20T16:00:23.465Z,5.53
2019-03-20T16:03:31.274Z,6.63
2019-03-20T16:06:38.828Z,4.00
2019-03-20T16:09:46.243Z,2.83
2019-03-20T16:12:54.774Z,3.70
2019-03-20T16:16:02.753Z,4.40
2019-03-20T16:19:11.200Z,5.60
2019-03-20T16:22:18.841Z,5.03
2019-03-20T16:25:26.348Z,3.40
2019-03-20T16:28:34.003Z,5.60
2019-03-20T16:31:41.639Z,6.10
2019-03-20T16:34:48.977Z,2.93
2019-03-20T16:37:56.819Z,5.00
2019-03-20T16:41:05.116Z,4.67
2019-03-20T16:44:13.730Z,6.17
2019-03-20T16:47:21.473Z,4.97
2019-03-20T16:50:29.560Z,4.30
2019-03-20T16:53:37.411Z,3.40
2019-03-20T16:56:45.957Z,2.30
2019-03-20T16:59:54.823Z,4.03
2019-03-20T17:03:02.755Z,3.93
2019-03-20T17:06:10.427Z,2.83
2019-03-20T17:09:17.874Z,5.47
2019-03-20T17:12:26.357Z,3.90
2019-03-20T17:15:34.264Z,3.23
2019-03-20T17:18:41.618Z,4.40
2019-03-20T17:21:49.676Z,3.53
2019-03-20T17:24:57.304Z,3.67
2019-03-20T17:28:05.614Z,4.27
2019-03-20T17:31:13.050Z,6.23
2019-03-20T17:34:20.997Z,3.40
2019-03-20T17:37:28.630Z,4.53
2019-03-20T17:40:36.396Z,4.90
2019-03-20T17:43:44.428Z,3.00
2019-03-20T17:46:51.837Z,2.43
2019-03-20T17:50:00.343Z,5.67
2019-03-20T17:53:08.075Z,6.50
2019-03-20T17:56:15.455Z,5.87
2019-03-20T17:59:23.114Z,6.03
2019-03-20T18:02:30.574Z,4.37
2019-03-20T18:05:38.458Z,4.50
2019-03-20T18:08:45.832Z,4.23
2019-03-20T18:11:53.630Z,4.80
2019-03-20T18:15:01.315Z,3.63
2019-03-20T18:18:08.831Z,4.23
2019-03-20T18:21:16.139Z,6.37
2019-03-20T18:24:23.415Z,5.17
2019-03-20T18:27:31.095Z,4.23
2019-03-20T18:30:39.261Z,8.03
2019-03-20T18:33:47.005Z,6.23
2019-03-20T18:36:54.604Z,10.37
2019-03-20T18:40:03.134Z,15.77
2019-03-20T18:43:10.755Z,7.90
2019-03-20T18:46:19.498Z,14.80
2019-03-20T18:49:27.067Z,10.93
2019-03-20T18:52:34.604Z,17.40
2019-03-20T18:55:42.177Z,18.27
2019-03-20T18:58:49.728Z,20.50
2019-03-20T19:01:57.571Z,12.13
2019-03-20T19:05:08.040Z,12.67
2019-03-20T19:08:15.774Z,16.17
2019-03-20T19:11:23.488Z,16.67
2019-03-20T19:14:31.290Z,14.30
2019-03-20T19:17:39.231Z,14.90
2019-03-20T19:20:46.679Z,9.50
2019-03-20T19:23:54.391Z,9.17
2019-03-20T19:27:01.783Z,8.33
2019-03-20T19:30:14.702Z,9.03
2019-03-20T19:33:22.401Z,7.63
2019-03-20T19:36:29.898Z,6.90
2019-03-20T19:39:37.407Z,5.83
2019-03-20T19:42:45.197Z,7.57
2019-03-20T19:45:52.746Z,6.50
2019-03-20T19:49:00.224Z,8.47
2019-03-20T19:52:07.897Z,7.93
2019-03-20T19:55:15.725Z,6.27
2019-03-20T19:58:23.903Z,6.47
2019-03-20T20:01:31.760Z,9.07
2019-03-20T20:04:39.534Z,11.17
2019-03-20T20:07:47.971Z,11.27
2019-03-20T20:10:59.330Z,13.30
2019-03-20T20:14:07.449Z,6.87
2019-03-20T20:17:15.700Z,11.57
2019-03-20T20:20:24.563Z,8.37
2019-03-20T20:23:31.896Z,9.07
2019-03-20T20:26:39.932Z,6.90
2019-03-20T20:29:47.374Z,6.23
2019-03-20T20:32:55.345Z,5.80
2019-03-20T20:36:03.122Z,7.37
2019-03-20T20:39:11.164Z,9.93
2019-03-20T20:42:18.846Z,4.77
2019-03-20T20:45:26.656Z,5.83
2019-03-20T20:48:34.652Z,5.53
2019-03-20T20:51:42.228Z,2.87
2019-03-20T20:54:50.214Z,2.47
2019-03-20T20:57:58.374Z,4.73
2019-03-20T21:01:05.931Z,5.00
2019-03-20T21:04:13.784Z,6.43
2019-03-20T21:07:21.740Z,4.73
2019-03-20T21:10:29.525Z,2.87
2019-03-20T21:13:37.636Z,4.53
2019-03-20T21:16:45.880Z,9.37
2019-03-20T21:19:54.281Z,4.67
2019-03-20T21:24:03.770Z,7.40
2019-03-20T21:28:29.656Z,4.03
2019-03-20T21:31:54.762Z,4.77
2019-03-20T21:36:10.624Z,4.20
2019-03-20T21:39:19.378Z,1.93
2019-03-20T21:43:29.908Z,6.67
2019-03-20T21:47:24.710Z,9.00
2019-03-20T21:51:13.525Z,8.57
2019-03-20T21:55:25.753Z,9.70
2019-03-20T21:59:23.325Z,9.93
2019-03-20T22:02:45.852Z,5.10
2019-03-20T22:06:50.863Z,4.83
2019-03-20T22:11:24.732Z,5.30
2019-03-20T22:14:33.354Z,6.40
2019-03-20T22:18:58.706Z,4.63
2019-03-20T22:22:48.742Z,7.83
2019-03-20T22:27:05.109Z,6.80
2019-03-20T22:30:13.658Z,6.83
2019-03-20T22:34:23.451Z,5.27
2019-03-20T22:37:31.681Z,4.17
2019-03-20T22:41:43.707Z,3.53
2019-03-20T22:45:14.530Z,6.13
2019-03-20T22:48:56.752Z,2.83
2019-03-20T22:52:58.198Z,5.27
2019-03-20T22:57:06.400Z,5.50
2019-03-20T23:00:15.362Z,4.10
2019-03-20T23:03:37.919Z,4.97
2019-03-20T23:06:46.162Z,5.23
2019-03-20T23:09:55.137Z,9.67
2019-03-20T23:13:03.417Z,8.80
2019-03-20T23:16:15.235Z,7.37
2019-03-20T23:19:23.349Z,6.03
2019-03-20T23:22:32.175Z,6.53
2019-03-20T23:25:40.923Z,4.30
2019-03-20T23:28:49.447Z,3.87
2019-03-20T23:31:57.861Z,6.93
2019-03-20T23:35:06.772Z,6.07
2019-03-20T23:38:15.018Z,6.43
2019-03-20T23:41:23.120Z,5.07
2019-03-20T23:44:32.235Z,4.90
2019-03-20T23:47:57.898Z,6.00
2019-03-20T23:51:10.693Z,6.23
2019-03-20T23:54:24.167Z,7.27
2019-03-20T23:57:32.246Z,6.27
